Flight Track Log - Related Links

Times and Time Zones

All times are in EDT time to prevent confusion due to time zone crossing. See the N96SK flight status page for this flight to view local times or setup timezone preferences in your user account.

Time Position Orientation Groundspeed Altitude Reporting Facility
EDT Latitude Longitude Course Direction KTS MPH feet Rate Location/Type
Mon 08:07:17 PM 35.3317 -82.5469 239° Southwest 280 322 7,800  Level Atlanta Center
Mon 08:08:17 PM 35.2928 -82.6264 239° Southwest 280 322 9,900 1,600 Climbing Atlanta Center
Mon 08:09:17 PM 35.2542 -82.7239 244° Southwest 299 344 11,000 2,100 Climbing Atlanta Center
Mon 08:10:17 PM 35.2075 -82.8289 241° Southwest 329 379 14,100 3,000 Climbing Atlanta Center
Mon 08:11:17 PM 35.1603 -82.9336 241° Southwest 348 400 17,000 2,350 Climbing Atlanta Center
Mon 08:12:00 PM 35.1253 -83.1662 239° Southwest  Level FlightAware Approximate
Mon 08:12:17 PM 35.1114 -83.0433 241° Southwest 365 420 18,800  Level Atlanta Center
Mon 08:13:17 PM 35.0600 -83.1633 242° Southwest 383 441 21,000 2,150 Climbing Atlanta Center
Mon 08:14:17 PM 35.0106 -83.2728 241° Southwest 383 441 23,100 1,900 Climbing Atlanta Center
Mon 08:15:17 PM 34.9633 -83.3772 241° Southwest 383 441 24,800 1,700 Climbing Atlanta Center
Mon 08:16:17 PM 34.9136 -83.4892 242° Southwest 388 447 26,500 1,700 Climbing Atlanta Center
Mon 08:17:17 PM 34.8642 -83.6033 242° Southwest 388 447 28,200 1,700 Climbing Atlanta Center
Mon 08:18:17 PM 34.8103 -83.7200 241° Southwest 394 453 29,900 1,650 Climbing Atlanta Center
Mon 08:19:17 PM 34.7561 -83.8339 240° Southwest 394 453 31,500 1,500 Climbing Atlanta Center
Mon 08:20:17 PM 34.7000 -83.9606 242° Southwest 400 460 32,900 1,250 Climbing Atlanta Center
Mon 08:21:17 PM 34.6500 -84.0717 241° Southwest 394 453 34,000 1,150 Climbing Atlanta Center
Mon 08:22:17 PM 34.5997 -84.1878 242° Southwest 388 447 35,200 1,100 Climbing Atlanta Center
Mon 08:23:17 PM 34.5453 -84.3011 240° Southwest 388 447 36,200 1,000 Climbing Atlanta Center
Mon 08:24:17 PM 34.4969 -84.4117 242° Southwest 388 447 37,200 900 Climbing Atlanta Center
Mon 08:25:17 PM 34.4467 -84.5175 240° Southwest 383 441 38,000 400 Climbing Atlanta Center
Mon 08:26:17 PM 34.3939 -84.6278 240° Southwest 376 433 38,000  Level Atlanta Center
Mon 08:27:17 PM 34.3411 -84.7433 241° Southwest 376 433 38,000  Level Atlanta Center
Mon 08:28:17 PM 34.2883 -84.8633 242° Southwest 393 452 38,000  Level Atlanta Center
Mon 08:29:17 PM 34.2311 -84.9786 239° Southwest 399 459 38,000  Level Atlanta Center
Mon 08:30:17 PM 34.1758 -85.0958 240° Southwest 399 459 38,000  Level Atlanta Center
Mon 08:31:17 PM 34.1372 -85.2208 250° West 399 459 38,000  Level Atlanta Center
Mon 08:32:17 PM 34.1006 -85.3433 250° West 394 453 38,000  Level Atlanta Center
Mon 08:33:17 PM 34.0614 -85.4681 249° West 394 453 38,000  Level Atlanta Center
Mon 08:34:17 PM 34.0267 -85.5903 251° West 389 448 38,000  Level Atlanta Center
Mon 08:35:17 PM 33.9917 -85.7150 251° West 389 448 38,000  Level Atlanta Center
Mon 08:36:17 PM 33.9567 -85.8219 248° West 384 442 38,000  Level Atlanta Center
Mon 08:37:17 PM 33.9214 -85.9414 250° West 384 442 38,000  Level Atlanta Center
Mon 08:38:17 PM 33.8819 -86.0631 249° West 384 442 38,000  Level Atlanta Center
Mon 08:39:17 PM 33.8464 -86.1872 251° West 384 442 38,000  Level Atlanta Center
Mon 08:40:17 PM 33.8089 -86.3089 250° West 384 442 38,000  Level Atlanta Center
Mon 08:41:17 PM 33.7711 -86.4278 249° West 384 442 38,000  Level Atlanta Center
Mon 08:42:17 PM 33.7353 -86.5517 251° West 384 442 38,000  Level Atlanta Center
Mon 08:43:17 PM 33.6972 -86.6706 249° West 384 442 38,000  Level Atlanta Center
Mon 08:44:17 PM 33.6592 -86.7942 250° West 384 442 38,000  Level Atlanta Center
Mon 08:45:17 PM 33.6208 -86.9175 250° West 384 442 38,000  Level Atlanta Center
Mon 08:46:17 PM 33.5825 -87.0361 249° West 389 448 38,000  Level Atlanta Center
Mon 08:47:17 PM 33.5439 -87.1642 250° West 389 448 38,000 200 Level Atlanta Center
Mon 08:48:17 PM 33.5050 -87.2875 249° West 389 448 38,400 372 Climbing Atlanta Center
Mon 08:49:10 PM 33.4678 -87.4089 250° West 393 452 38,700 372 Climbing Memphis Center
Mon 08:50:10 PM 33.4347 -87.5144 249° West 388 447 39,100 400 Climbing Memphis Center
Mon 08:51:10 PM 33.3956 -87.6353 249° West 388 447 39,500 400 Climbing Memphis Center
Mon 08:52:10 PM 33.3500 -87.7461 244° Southwest 383 441 39,900 250 Climbing Memphis Center
Mon 08:53:10 PM 33.3022 -87.8544 242° Southwest 378 435 40,000 50 Climbing Memphis Center
Mon 08:54:10 PM 33.2542 -87.9625 242° Southwest 378 435 40,000  Level Memphis Center
Mon 08:55:10 PM 33.2083 -88.0731 244° Southwest 372 428 40,000  Level Memphis Center
Mon 08:56:10 PM 33.1600 -88.1833 242° Southwest 372 428 40,000  Level Memphis Center
Mon 08:57:10 PM 33.1119 -88.2936 243° Southwest 372 428 40,000  Level Memphis Center
Mon 08:58:10 PM 33.0678 -88.4014 244° Southwest 372 428 40,000  Level Memphis Center
Mon 08:59:10 PM 33.0192 -88.5089 242° Southwest 372 428 40,000  Level Memphis Center
Mon 09:00:10 PM 32.9686 -88.6214 242° Southwest 372 428 40,000  Level Memphis Center
Mon 09:01:10 PM 32.9200 -88.7314 242° Southwest 372 428 40,000  Level Memphis Center
Mon 09:02:10 PM 32.8714 -88.8411 242° Southwest 372 428 40,000  Level Memphis Center
Mon 09:03:10 PM 32.8225 -88.9481 241° Southwest 372 428 40,000  Level Memphis Center
Mon 09:04:10 PM 32.7736 -89.0575 242° Southwest 372 428 40,000  Level Memphis Center
Mon 09:05:10 PM 32.7225 -89.1672 241° Southwest 372 428 40,000  Level Memphis Center
Mon 09:06:10 PM 32.6733 -89.2764 242° Southwest 372 428 40,000  Level Memphis Center
Mon 09:07:10 PM 32.6242 -89.3831 241° Southwest 372 428 40,000  Level Memphis Center
Mon 09:08:10 PM 32.5811 -89.4944 245° Southwest 372 428 40,000  Level Memphis Center
Mon 09:09:10 PM 32.5361 -89.6033 244° Southwest 372 428 40,000  Level Memphis Center
Mon 09:10:10 PM 32.4928 -89.7094 244° Southwest 367 422 40,000  Level Memphis Center
Mon 09:11:10 PM 32.4475 -89.8206 244° Southwest 367 422 40,000  Level Memphis Center
Mon 09:12:10 PM 32.4039 -89.9292 245° Southwest 367 422 40,000  Level Memphis Center
Mon 09:13:10 PM 32.3583 -90.0375 244° Southwest 362 417 40,000  Level Memphis Center
Mon 09:14:10 PM 32.3128 -90.1458 244° Southwest 362 417 40,000  Level Memphis Center
Mon 09:15:10 PM 32.2689 -90.2542 244° Southwest 362 417 40,000  Level Memphis Center
Mon 09:16:10 PM 32.2231 -90.3647 244° Southwest 362 417 40,000  Level Memphis Center
Mon 09:17:10 PM 32.1750 -90.4753 243° Southwest 367 422 40,000  Level Memphis Center
Mon 09:19:18 PM 32.0733 -90.7231 244° Southwest 386 444 40,000  Level Houston Center
Mon 09:20:20 PM 32.0239 -90.8408 244° Southwest 384 442 40,000  Level Houston Center
Mon 09:21:21 PM 31.9761 -90.9531 243° Southwest 384 442 40,000  Level Houston Center
Mon 09:22:23 PM 31.9289 -91.0664 244° Southwest 384 442 40,000  Level Houston Center
Mon 09:23:25 PM 31.8800 -91.1797 243° Southwest 390 449 40,000  Level Houston Center
Mon 09:24:26 PM 31.8278 -91.2906 241° Southwest 388 447 40,000  Level Houston Center
Mon 09:25:28 PM 31.7753 -91.4031 241° Southwest 392 451 40,000  Level Houston Center
Mon 09:26:29 PM 31.7236 -91.5150 242° Southwest 391 450 40,000  Level Houston Center
Mon 09:27:31 PM 31.6706 -91.6275 241° Southwest 394 453 40,000  Level Houston Center
Mon 09:28:32 PM 31.6072 -91.7625 241° Southwest 394 453 40,000  Level Houston Center
Mon 09:29:34 PM 31.5542 -91.8756 241° Southwest 396 456 40,000  Level Houston Center
Mon 09:30:35 PM 31.5014 -91.9872 241° Southwest 392 451 40,000  Level Houston Center
Mon 09:31:36 PM 31.4522 -92.0858 240° Southwest 391 450 40,000  Level Houston Center
Mon 09:32:38 PM 31.4000 -92.1978 241° Southwest 393 452 40,000  Level Houston Center
Mon 09:33:39 PM 31.3364 -92.3311 241° Southwest 391 450 40,000  Level Houston Center
Mon 09:34:41 PM 31.2831 -92.4408 240° Southwest 391 450 40,000 -49 Level Houston Center
Mon 09:35:42 PM 31.2358 -92.5506 243° Southwest 385 443 39,900 -836 Descending Houston Center
Mon 09:36:43 PM 31.1981 -92.6619 248° West 375 432 38,300 -1,561 Descending Houston Center
Mon 09:37:45 PM 31.1597 -92.7703 248° West 369 425 36,700 -1,561 Descending Houston Center
Mon 09:38:46 PM 31.1197 -92.8747 246° West 362 417 35,100 -1,525 Descending Houston Center
Mon 09:39:47 PM 31.0825 -92.9764 247° West 350 403 33,600 -1,525 Descending Houston Center
Mon 09:40:48 PM 31.0444 -93.0764 246° West 344 396 32,000 -1,756 Descending Houston Center
Mon 09:41:50 PM 30.9967 -93.2022 246° West 352 405 30,000 -1,756 Descending Houston Center
Mon 09:42:51 PM 30.9547 -93.3083 245° Southwest 359 413 28,400 -1,623 Descending Houston Center
Mon 09:43:52 PM 30.9133 -93.4178 246° West 367 422 26,700 -1,659 Descending Houston Center
Mon 09:44:54 PM 30.8711 -93.5267 246° West 371 427 25,000 -1,659 Descending Houston Center
Mon 09:45:55 PM 30.8306 -93.6353 247° West 371 427 23,300 -1,672 Descending Houston Center
Mon 09:46:56 PM 30.7897 -93.7425 246° West 367 422 21,600 -1,672 Descending Houston Center
Mon 09:47:57 PM 30.7517 -93.8461 247° West 355 409 19,900 -1,610 Descending Houston Center
Mon 09:48:59 PM 30.7122 -93.9450 245° Southwest 343 395 18,300 -1,659 Descending Houston Center
Mon 09:50:00 PM 30.6700 -94.0611 247° West 330 380 16,500 -1,691 Descending Houston Center
Mon 09:50:49 PM 30.6383 -94.1411 245° Southwest 319 367 15,200 -1,592 Descending Houston Center
Mon 09:51:38 PM 30.6103 -94.2156 246° West 316 364 13,900 -1,562 Descending Houston Center
Mon 09:52:02 PM 30.5986 -94.2464 246° West 314 361 13,300 -1,279 Descending Houston Center
Mon 09:52:39 PM 30.5769 -94.3050 247° West 306 352 12,600 -1,279 Descending Houston Center
Mon 09:53:03 PM 30.5661 -94.3344 247° West 301 346 12,000 -1,377 Descending Houston Center
Mon 09:53:40 PM 30.5414 -94.3922 244° Southwest 290 334 11,200 -1,258 Descending Houston Center
Mon 09:54:05 PM 30.5319 -94.4189 248° West 290 334 10,700 -1,300 Descending Houston Center
Mon 09:54:40 PM 30.5078 -94.4767 244° Southwest 286 329 9,900 -787 Descending Houston Center
Mon 09:55:06 PM 30.4950 -94.5122 247° West 282 325 9,900 -774 Level Houston Center
Mon 09:55:42 PM 30.4800 -94.5581 249° West 272 313 9,100 -1,377 Descending Houston Center
Mon 09:56:07 PM 30.4733 -94.5953 258° West 270 311 8,500 -1,500 Descending Houston Center
Mon 09:56:42 PM 30.4739 -94.6461 271° West 269 310 7,600 -1,475 Descending Houston Center
Mon 09:57:08 PM 30.4744 -94.6842 271° West 273 314 7,000 -1,770 Descending Houston Center
Mon 09:57:43 PM 30.4783 -94.7378 275° West 265 305 5,800 -1,574 Descending Houston Center
Mon 09:58:09 PM 30.4794 -94.7686 272° West 265 305 5,400 -787 Descending Houston Center
Mon 09:58:44 PM 30.4819 -94.8197 273° West 255 293 5,000 -484 Descending Houston Center
Mon 09:59:11 PM 30.4822 -94.8503 271° West 257 296 4,900 -109 Descending Houston Center
Mon 09:59:39 PM 30.4850 -94.8944 274° West 251 289 4,900 98 Level Houston Center
Mon 10:00:12 PM 30.4875 -94.9303 275° West 251 289 5,000  Climbing Houston Center
Mon 10:00:39 PM 30.4906 -94.9761 274° West 252 290 4,900 -366 Descending Houston Center
Mon 10:01:34 PM 30.4931 -95.0486 272° West 245 282 4,500 -931 Descending Houston Center
Mon 10:02:35 PM 30.5006 -95.1278 276° West 251 289 3,100 -891 Descending Houston Center
Mon 10:03:15 PM 30.5047 -95.1728 276° West 251 289 3,000 -98 Descending Houston Center
Mon 10:03:36 PM 30.5058 -95.2094 272° West 245 282 3,000  Level Houston Center
Mon 10:04:17 PM 30.5064 -95.2500 271° West 242 278 3,000  Level Houston Center
Mon 10:04:37 PM 30.5083 -95.2819 274° West 224 258 3,000  Level Houston Center
Mon 10:05:18 PM 30.5119 -95.3189 276° West 225 259 3,000  Level Houston Center
Mon 10:05:50 PM 30.5133 -95.3589 272° West 186 214 3,000  Level Houston Center
Mon 10:06:19 PM 30.5156 -95.3936 274° West 201 231 3,000  Level Houston Center
Mon 10:06:44 PM 30.5167 -95.4192 273° West 195 224 3,000  Level Houston Center
Mon 10:07:20 PM 30.5367 -95.4417 316° Northwest 197 227 3,000  Level Houston Center
Mon 10:07:57 PM 30.5706 -95.4589 336° Northwest 195 224 3,000  Level Houston Center
Mon 10:08:21 PM 30.5836 -95.4658 335° Northwest 189 217 3,000  Level Houston Center
Mon 10:08:58 PM 30.5750 -95.5092 257° West 168 193 3,000  Level Houston Center
Mon 10:09:22 PM 30.5725 -95.5247 259° West 179 206 3,000  Level Houston Center
Mon 10:09:47 PM 30.5522 -95.5339 201° Southwest 165 190 3,000  Level Houston Center
Mon 10:10:23 PM 30.5342 -95.5278 164° South 159 183 3,000  Level Houston Center
Mon 10:10:54 PM 30.5089 -95.5194 164° South 154 177 3,000  Level Houston Center
Mon 10:11:24 PM 30.4928 -95.5131 161° South 153 176 3,000  Level Houston Center
Mon 10:11:49 PM 30.4736 -95.5019 153° Southeast 148 170 3,000 -290 Level Houston Center
Mon 10:12:26 PM 30.4578 -95.4944 158° South 141 162 2,700 -716 Descending Houston Center
Mon 10:12:56 PM 30.4403 -95.4817 148° Southeast 122 140 2,200 -787 Descending Houston Center
Mon 10:13:27 PM 30.4306 -95.4742 146° Southeast 123 142 1,900 -700 Descending Houston Center
Mon 10:13:56 PM 30.4133 -95.4608 146° Southeast 104 120 1,500 -492 Descending Houston Center
Mon 10:14:28 PM 30.4053 -95.4558 152° Southeast 111 128 1,400 -537 Descending Houston Center
Mon 10:15:03 PM 30.3861 -95.4397 144° Southeast 104 120 900 -197 Descending Houston Center
Mon 10:15:29 PM 30.3783 -95.4308 135° Southeast 109 125 1,200 -600 Climbing Houston Center
Mon 10:15:53 PM 30.3636 -95.4231 155° Southeast 112 129 400 -2,000 Descending Houston Center

Login

Don't have an account? Register now (free) for customized features, flight alerts, and more!